This is the latest recevied weather packets stored in our database for station/object TG5ALY-16. If no packets are shown the sender has not sent any weather packets the latest 10 day(s).
| Time | Temp. | Humidity | Pressure | Rain* | Wind** | Luminosity | Snow |
|---|---|---|---|---|---|---|---|
| 1778030912 | 16.11° C | 79% | 1016 hPa | 0 mm | - | - | - |
| 1778030312 | 16.67° C | 77% | 1016 hPa | 0 mm | - | - | - |
| 1778029711 | 16.67° C | 77% | 1016 hPa | 0 mm | - | - | - |
| 1778029110 | 17.22° C | 85% | 1016 hPa | 0 mm | - | - | - |
| 1778028510 | 17.22° C | 85% | 1016 hPa | 0 mm | - | - | - |
| 1778027909 | 17.78° C | 84% | 1016 hPa | 0 mm | - | - | - |
| 1778027308 | 17.78° C | 84% | 1015 hPa | 0 mm | - | - | - |
| 1778026708 | 18.33° C | 79% | 1015 hPa | 0 mm | - | - | - |
| 1778026107 | 18.33° C | 79% | 1015 hPa | 0 mm | - | - | - |
| 1778025507 | 20° C | 59% | 1015 hPa | 0 mm | - | - | - |
| 1778024906 | 20° C | 59% | 1015 hPa | 0 mm | - | - | - |
| 1778024305 | 20.56° C | 70% | 1015 hPa | 0 mm | - | - | - |
| 1778023705 | 20.56° C | 70% | 1014 hPa | 0 mm | - | - | - |
| 1778023104 | 20.56° C | 73% | 1014 hPa | 0 mm | - | - | - |
| 1778022503 | 20.56° C | 73% | 1014 hPa | 0 mm | - | - | - |
| 1778021902 | 20.56° C | 71% | 1014 hPa | 0 mm | - | - | - |
| 1778021302 | 20.56° C | 71% | 1014 hPa | 0 mm | - | - | - |
| 1778020701 | 20.56° C | 71% | 1014 hPa | 0 mm | - | - | - |
| 1778020101 | 20.56° C | 71% | 1014 hPa | 0 mm | - | - | - |
| 1778019500 | 21.11° C | 68% | 1014 hPa | 0 mm | - | - | - |
| 1778018899 | 22.22° C | 62% | 1013 hPa | 0 mm | - | - | - |
| 1778018299 | 22.22° C | 62% | 1013 hPa | 0 mm | - | - | - |
| 1778017698 | 22.22° C | 62% | 1013 hPa | 0 mm | - | - | - |
| 1778017097 | 22.78° C | 56% | 1013 hPa | 0 mm | - | - | - |
| 1778016497 | 22.78° C | 57% | 1014 hPa | 0 mm | - | - | - |
* Rain latest hour (hover to see other rain measurements)
** Current wind speed in m/s (hover to see current wind gust speed)